createdAt,value
2019-02-25T00:00:30.242Z,2.70
2019-02-25T00:02:57.884Z,2.70
2019-02-25T00:05:25.445Z,2.70
2019-02-25T00:07:53.135Z,2.60
2019-02-25T00:10:20.680Z,2.80
2019-02-25T00:12:48.333Z,2.90
2019-02-25T00:15:15.898Z,2.90
2019-02-25T00:17:43.578Z,3.00
2019-02-25T00:20:11.238Z,3.10
2019-02-25T00:22:38.828Z,3.00
2019-02-25T00:25:07.339Z,3.00
2019-02-25T00:27:34.950Z,3.70
2019-02-25T00:30:02.560Z,3.30
2019-02-25T00:32:30.162Z,3.00
2019-02-25T00:34:57.845Z,2.90
2019-02-25T00:37:25.458Z,3.00
2019-02-25T00:39:53.078Z,2.90
2019-02-25T00:42:20.802Z,3.10
2019-02-25T00:44:48.303Z,3.10
2019-02-25T00:47:15.884Z,3.10
2019-02-25T00:49:43.498Z,3.00
2019-02-25T00:52:11.212Z,2.90
2019-02-25T00:54:38.735Z,2.80
2019-02-25T00:57:06.302Z,3.00
2019-02-25T00:59:33.989Z,2.80
2019-02-25T01:02:01.574Z,2.80
2019-02-25T01:04:29.180Z,2.80
2019-02-25T01:06:57.150Z,2.70
2019-02-25T01:09:24.728Z,2.70
2019-02-25T01:11:52.314Z,2.60
2019-02-25T01:14:20.046Z,2.60
2019-02-25T01:16:47.612Z,2.50
2019-02-25T01:19:15.244Z,2.60
2019-02-25T01:21:42.831Z,2.60
2019-02-25T01:24:10.505Z,2.60
2019-02-25T01:26:38.096Z,2.50
2019-02-25T01:29:05.656Z,2.70
2019-02-25T01:31:33.277Z,2.70
2019-02-25T01:34:00.909Z,2.70
2019-02-25T01:36:28.602Z,2.70
2019-02-25T01:38:56.233Z,2.90
2019-02-25T01:41:23.881Z,3.00
2019-02-25T01:43:51.431Z,2.90
2019-02-25T01:46:19.090Z,2.80
2019-02-25T01:48:46.710Z,2.80
2019-02-25T01:51:14.405Z,2.70
2019-02-25T01:53:41.915Z,2.60
2019-02-25T01:56:09.597Z,2.50
2019-02-25T01:58:37.188Z,2.50
2019-02-25T02:01:04.713Z,2.50
2019-02-25T02:03:32.461Z,2.40
2019-02-25T02:06:00.122Z,2.40
2019-02-25T02:08:27.680Z,2.40
2019-02-25T02:10:55.227Z,2.40
2019-02-25T02:13:22.841Z,2.50
2019-02-25T02:15:50.406Z,2.60
2019-02-25T02:18:17.934Z,2.80
2019-02-25T02:20:45.562Z,2.60
2019-02-25T02:23:13.116Z,2.60
2019-02-25T02:25:40.704Z,3.00
2019-02-25T02:28:08.297Z,2.80
2019-02-25T02:30:35.753Z,2.90
2019-02-25T02:33:03.347Z,2.90
2019-02-25T02:35:30.936Z,2.80
2019-02-25T02:37:58.828Z,2.80
2019-02-25T02:40:26.409Z,2.80
2019-02-25T02:42:55.185Z,3.50
2019-02-25T02:45:37.736Z,3.40
2019-02-25T02:48:11.320Z,3.20
2019-02-25T02:50:38.882Z,3.10
2019-02-25T02:53:06.447Z,3.20
2019-02-25T02:55:34.015Z,3.20
2019-02-25T02:58:01.625Z,3.10
2019-02-25T03:00:29.227Z,3.00
2019-02-25T03:02:56.905Z,2.90
2019-02-25T03:05:24.508Z,3.80
2019-02-25T03:07:52.129Z,2.90
2019-02-25T03:10:19.730Z,3.00
2019-02-25T03:12:47.347Z,2.40
2019-02-25T03:15:16.521Z,2.90
2019-02-25T03:17:44.120Z,3.00
2019-02-25T03:20:11.843Z,2.90
2019-02-25T03:22:39.396Z,2.90
2019-02-25T03:25:08.522Z,2.80
2019-02-25T03:27:36.112Z,3.90
2019-02-25T03:30:05.661Z,3.00
2019-02-25T03:32:33.252Z,3.00
2019-02-25T03:35:00.831Z,3.10
2019-02-25T03:37:28.484Z,3.10
2019-02-25T03:39:56.152Z,3.60
2019-02-25T03:42:23.813Z,3.30
2019-02-25T03:44:51.484Z,3.30
2019-02-25T03:47:19.097Z,4.10
2019-02-25T03:49:46.719Z,4.00
2019-02-25T03:52:14.273Z,3.50
2019-02-25T03:54:41.916Z,3.50
2019-02-25T03:57:09.560Z,3.60
2019-02-25T03:59:37.139Z,3.30
2019-02-25T04:02:04.801Z,3.20
2019-02-25T04:04:32.663Z,3.20
2019-02-25T04:07:00.320Z,3.10
2019-02-25T04:09:27.951Z,4.10
2019-02-25T04:11:55.673Z,3.10
2019-02-25T04:14:23.262Z,3.20
2019-02-25T04:16:50.838Z,3.20
2019-02-25T04:19:18.509Z,3.00
2019-02-25T04:21:46.115Z,3.00
2019-02-25T04:24:13.753Z,3.00
2019-02-25T04:26:41.406Z,2.90
2019-02-25T04:29:08.991Z,3.00
2019-02-25T04:31:36.524Z,3.00
2019-02-25T04:34:04.167Z,2.90
2019-02-25T04:36:31.747Z,2.90
2019-02-25T04:38:59.266Z,2.90
2019-02-25T04:41:26.887Z,2.90
2019-02-25T04:43:54.477Z,2.90
2019-02-25T04:46:22.129Z,3.00
2019-02-25T04:48:49.763Z,2.90
2019-02-25T04:51:17.421Z,2.30
2019-02-25T04:53:45.107Z,2.80
2019-02-25T04:56:12.656Z,2.70
2019-02-25T04:58:40.259Z,2.70
2019-02-25T05:01:08.070Z,2.80
2019-02-25T05:03:35.689Z,2.70
2019-02-25T05:06:03.258Z,2.50
2019-02-25T05:08:30.807Z,2.40
2019-02-25T05:10:58.401Z,2.40
2019-02-25T05:13:25.949Z,2.30
2019-02-25T05:15:53.608Z,2.10
2019-02-25T05:18:21.184Z,2.70
2019-02-25T05:20:48.861Z,2.10
2019-02-25T05:23:16.532Z,1.80
2019-02-25T05:25:44.120Z,1.60
2019-02-25T05:28:11.691Z,1.50
2019-02-25T05:30:39.323Z,1.50
2019-02-25T05:33:06.894Z,2.00
2019-02-25T05:35:34.533Z,1.20
2019-02-25T05:38:02.055Z,1.00
2019-02-25T05:40:29.643Z,1.00
2019-02-25T05:42:58.703Z,1.00
2019-02-25T05:45:26.291Z,1.40
2019-02-25T05:47:53.973Z,1.60
2019-02-25T05:50:21.625Z,2.90
2019-02-25T05:52:49.164Z,1.80
2019-02-25T05:55:16.817Z,2.50
2019-02-25T05:57:44.487Z,2.20
2019-02-25T06:00:15.766Z,2.30
2019-02-25T06:02:43.338Z,2.30
2019-02-25T06:05:10.890Z,2.50
2019-02-25T06:07:38.511Z,3.30
2019-02-25T06:10:07.096Z,3.60
2019-02-25T06:12:34.640Z,3.50
2019-02-25T06:15:02.301Z,3.10
2019-02-25T06:17:29.901Z,3.70
2019-02-25T06:19:57.509Z,3.20
2019-02-25T06:22:25.021Z,3.60
2019-02-25T06:24:52.734Z,3.30
2019-02-25T06:27:30.276Z,3.10
2019-02-25T06:29:49.953Z,3.10
2019-02-25T06:32:17.645Z,3.00
2019-02-25T06:34:45.262Z,3.50
2019-02-25T06:37:12.865Z,2.90
2019-02-25T06:39:40.434Z,2.90
2019-02-25T06:42:08.031Z,3.00
2019-02-25T06:44:35.665Z,3.60
2019-02-25T06:47:03.341Z,3.20
2019-02-25T06:49:30.914Z,3.20
2019-02-25T06:51:58.492Z,3.60
2019-02-25T06:54:26.092Z,4.00
2019-02-25T06:56:53.685Z,4.10
2019-02-25T06:59:21.259Z,4.30
2019-02-25T07:01:48.950Z,4.40
2019-02-25T07:04:22.282Z,4.40
2019-02-25T07:07:24.457Z,4.30
2019-02-25T07:10:03.893Z,4.10
2019-02-25T07:12:56.942Z,4.10
2019-02-25T07:15:46.662Z,4.20
2019-02-25T07:18:32.082Z,4.40
2019-02-25T07:21:06.438Z,4.50
2019-02-25T07:23:54.976Z,4.70
2019-02-25T07:26:40.214Z,4.80
2019-02-25T07:29:17.797Z,4.80
2019-02-25T07:31:59.419Z,5.20
2019-02-25T07:34:45.609Z,5.20
2019-02-25T07:37:31.288Z,5.20
2019-02-25T07:40:06.892Z,5.30
2019-02-25T07:42:52.455Z,5.40
2019-02-25T07:45:39.541Z,5.30
2019-02-25T07:48:15.937Z,5.40
2019-02-25T07:50:57.108Z,5.40
2019-02-25T07:53:31.187Z,5.70
2019-02-25T07:56:16.568Z,5.90
2019-02-25T07:59:05.133Z,6.40
2019-02-25T08:01:48.244Z,6.30
2019-02-25T08:04:44.238Z,6.80
2019-02-25T08:07:25.908Z,7.10
2019-02-25T08:10:11.459Z,7.40
2019-02-25T08:12:50.995Z,7.10
2019-02-25T08:15:29.819Z,7.40
2019-02-25T08:18:08.257Z,7.30
2019-02-25T08:21:04.334Z,7.30
2019-02-25T08:23:40.121Z,7.30
2019-02-25T08:26:33.325Z,7.60
2019-02-25T08:29:23.483Z,7.50
2019-02-25T08:32:10.678Z,7.70
2019-02-25T08:34:56.309Z,7.80
2019-02-25T08:38:06.478Z,7.50
2019-02-25T08:41:19.573Z,7.50
2019-02-25T08:44:01.032Z,7.60
2019-02-25T08:46:33.801Z,7.60
2019-02-25T08:49:05.238Z,7.50
2019-02-25T08:51:46.982Z,7.40
2019-02-25T08:54:14.684Z,7.90
2019-02-25T08:56:43.007Z,8.00
2019-02-25T08:59:10.782Z,8.00
2019-02-25T09:01:38.414Z,8.00
2019-02-25T09:04:06.045Z,8.00
2019-02-25T09:06:33.766Z,7.80
2019-02-25T09:09:01.411Z,7.80
2019-02-25T09:11:29.122Z,7.90
2019-02-25T09:13:56.743Z,8.40
2019-02-25T09:16:24.366Z,8.50
2019-02-25T09:18:51.911Z,8.70
2019-02-25T09:21:19.593Z,8.70
2019-02-25T09:23:47.488Z,9.10
2019-02-25T09:26:15.112Z,9.10
2019-02-25T09:28:42.677Z,9.40
2019-02-25T09:31:10.345Z,9.30
2019-02-25T09:33:37.991Z,9.50
2019-02-25T09:36:05.561Z,9.70
2019-02-25T09:38:33.193Z,9.40
2019-02-25T09:41:00.784Z,9.90
2019-02-25T09:43:28.328Z,9.90
2019-02-25T09:45:55.898Z,10.20
2019-02-25T09:48:23.510Z,10.00
2019-02-25T09:50:51.031Z,9.80
2019-02-25T09:53:18.650Z,9.80
2019-02-25T09:55:46.383Z,10.20
2019-02-25T09:58:14.053Z,9.90
2019-02-25T10:00:41.742Z,9.60
2019-02-25T10:03:09.919Z,9.80
2019-02-25T10:05:37.605Z,9.70
2019-02-25T10:08:05.344Z,9.80
2019-02-25T10:10:33.073Z,9.80
2019-02-25T10:13:00.731Z,9.40
2019-02-25T10:15:28.438Z,9.30
2019-02-25T10:17:56.233Z,9.40
2019-02-25T10:20:23.928Z,9.40
2019-02-25T10:22:51.684Z,9.70
2019-02-25T10:25:19.559Z,9.50
2019-02-25T10:27:49.522Z,10.60
2019-02-25T10:30:17.198Z,9.60
2019-02-25T10:32:51.950Z,9.60
2019-02-25T10:35:24.634Z,9.70
2019-02-25T10:37:50.028Z,9.50
2019-02-25T10:40:24.468Z,10.30
2019-02-25T10:42:51.587Z,10.40
2019-02-25T10:45:19.557Z,10.40
2019-02-25T10:47:49.589Z,10.40
2019-02-25T10:50:17.532Z,10.50
2019-02-25T10:52:48.509Z,10.80
2019-02-25T10:55:21.863Z,10.90
2019-02-25T10:57:49.899Z,11.20
2019-02-25T11:00:18.676Z,10.90
2019-02-25T11:02:48.951Z,11.30
2019-02-25T11:05:18.910Z,11.60
2019-02-25T11:07:46.714Z,11.30
2019-02-25T11:10:40.322Z,9.50
2019-02-25T11:13:08.455Z,11.10
2019-02-25T11:15:39.639Z,10.90
2019-02-25T11:18:07.913Z,10.20
2019-02-25T11:20:37.663Z,11.00
2019-02-25T11:23:05.472Z,11.00
2019-02-25T11:25:36.106Z,11.10
2019-02-25T11:28:05.366Z,10.70
2019-02-25T11:30:33.612Z,11.20
2019-02-25T11:33:01.293Z,11.10
2019-02-25T11:35:29.146Z,9.90
2019-02-25T11:37:58.964Z,10.00
2019-02-25T11:40:28.399Z,13.40
2019-02-25T11:42:57.510Z,11.30
2019-02-25T11:45:26.741Z,11.50
2019-02-25T11:48:06.487Z,11.70
2019-02-25T11:50:39.642Z,11.30
2019-02-25T11:53:18.085Z,10.80
2019-02-25T11:55:45.765Z,11.20
2019-02-25T11:58:13.441Z,11.00
2019-02-25T12:00:41.198Z,10.80
2019-02-25T12:03:09.240Z,10.90
2019-02-25T12:05:37.413Z,10.80
2019-02-25T12:08:05.616Z,11.20
2019-02-25T12:10:33.760Z,11.20
2019-02-25T12:13:04.576Z,11.00
2019-02-25T12:15:35.373Z,11.00
2019-02-25T12:18:03.540Z,11.20
2019-02-25T12:20:31.687Z,11.60
2019-02-25T12:22:59.608Z,11.50
2019-02-25T12:25:28.812Z,11.70
2019-02-25T12:27:56.869Z,11.40
2019-02-25T12:30:24.736Z,11.70
2019-02-25T12:32:53.000Z,11.90
2019-02-25T12:35:22.977Z,12.30
2019-02-25T12:37:50.939Z,12.40
2019-02-25T12:40:19.450Z,12.70
2019-02-25T12:42:47.755Z,12.50
2019-02-25T12:45:16.100Z,12.50
2019-02-25T12:50:14.874Z,12.70
2019-02-25T12:52:42.880Z,13.00
2019-02-25T12:55:10.862Z,12.90
2019-02-25T12:57:40.818Z,13.00
2019-02-25T13:00:13.307Z,13.00
2019-02-25T13:02:42.761Z,13.30
2019-02-25T13:05:12.454Z,13.30
2019-02-25T13:07:40.428Z,13.50
2019-02-25T13:10:10.100Z,13.50
2019-02-25T13:12:43.809Z,13.60
2019-02-25T13:15:17.267Z,14.10
2019-02-25T13:17:46.757Z,14.10
2019-02-25T13:20:15.022Z,14.00
2019-02-25T13:22:42.908Z,14.10
2019-02-25T13:25:13.258Z,14.10
2019-02-25T13:27:42.317Z,13.80
2019-02-25T13:30:14.492Z,14.00
2019-02-25T13:32:42.467Z,13.80
2019-02-25T13:35:11.053Z,13.80
2019-02-25T13:37:38.923Z,14.00
2019-02-25T13:40:09.582Z,14.00
2019-02-25T13:42:37.722Z,13.20
2019-02-25T13:45:08.308Z,14.30
2019-02-25T13:47:41.238Z,14.20
2019-02-25T13:50:14.755Z,14.20
2019-02-25T13:52:48.152Z,14.30
2019-02-25T13:55:13.079Z,14.10
2019-02-25T13:57:44.389Z,14.20
2019-02-25T14:00:16.745Z,14.40
2019-02-25T14:02:45.049Z,14.50
2019-02-25T14:05:13.449Z,14.40
2019-02-25T14:07:46.625Z,14.20
2019-02-25T14:10:16.275Z,13.40
2019-02-25T14:12:50.671Z,14.20
2019-02-25T14:15:19.961Z,14.30
2019-02-25T14:17:52.759Z,14.30
2019-02-25T14:20:20.758Z,13.80
2019-02-25T14:22:48.800Z,13.80
2019-02-25T14:25:38.177Z,13.80
2019-02-25T14:28:08.127Z,14.30
2019-02-25T14:30:36.006Z,13.80
2019-02-25T14:33:03.610Z,12.00
2019-02-25T14:35:31.252Z,13.30
2019-02-25T14:38:04.230Z,13.30
2019-02-25T14:40:32.304Z,13.50
2019-02-25T14:43:00.625Z,12.60
2019-02-25T14:45:32.149Z,13.50
2019-02-25T14:48:02.016Z,13.40
2019-02-25T14:50:29.383Z,13.40
2019-02-25T14:52:57.038Z,13.30
2019-02-25T14:55:25.534Z,13.30
2019-02-25T14:57:55.075Z,13.50
2019-02-25T15:00:24.257Z,13.50
2019-02-25T15:02:52.886Z,13.70
2019-02-25T15:05:22.474Z,13.60
2019-02-25T15:07:51.164Z,13.90
2019-02-25T15:10:40.568Z,13.80
2019-02-25T15:13:08.889Z,13.60
2019-02-25T15:15:39.173Z,13.50
2019-02-25T15:18:07.171Z,13.40
2019-02-25T15:20:34.861Z,13.10
2019-02-25T15:23:03.529Z,13.40
2019-02-25T15:25:33.108Z,13.70
2019-02-25T15:28:00.498Z,13.90
2019-02-25T15:30:30.384Z,13.70
2019-02-25T15:32:59.030Z,13.40
2019-02-25T15:35:31.789Z,13.10
2019-02-25T15:38:00.093Z,13.50
2019-02-25T15:40:27.804Z,13.70
2019-02-25T15:43:03.620Z,13.50
2019-02-25T15:45:32.881Z,13.30
2019-02-25T15:48:01.836Z,13.30
2019-02-25T15:50:29.784Z,13.50
2019-02-25T15:53:02.556Z,13.60
2019-02-25T15:55:28.461Z,13.30
2019-02-25T15:57:56.042Z,13.40
2019-02-25T16:00:25.434Z,13.60
2019-02-25T16:02:55.061Z,13.30
2019-02-25T16:05:23.368Z,13.00
2019-02-25T16:07:53.877Z,12.90
2019-02-25T16:10:22.121Z,12.60
2019-02-25T16:13:14.268Z,12.60
2019-02-25T16:15:42.085Z,12.50
2019-02-25T16:18:13.653Z,12.30
2019-02-25T16:20:45.932Z,12.10
2019-02-25T16:23:11.246Z,11.80
2019-02-25T16:25:40.738Z,11.80
2019-02-25T16:28:10.306Z,10.10
2019-02-25T16:30:37.892Z,11.00
2019-02-25T16:33:07.339Z,10.60
2019-02-25T16:35:36.936Z,10.30
2019-02-25T16:38:05.694Z,10.00
2019-02-25T16:40:36.100Z,9.70
2019-02-25T16:43:05.255Z,9.40
2019-02-25T16:45:35.471Z,9.20
2019-02-25T16:48:02.800Z,9.00
2019-02-25T16:50:31.094Z,8.80
2019-02-25T16:52:58.657Z,8.60
2019-02-25T16:55:27.733Z,8.50
2019-02-25T16:57:55.525Z,8.40
2019-02-25T17:00:25.272Z,8.20
2019-02-25T17:02:52.655Z,8.10
2019-02-25T17:05:20.465Z,8.10
2019-02-25T17:07:49.009Z,7.90
2019-02-25T17:10:16.899Z,7.70
2019-02-25T17:12:45.728Z,7.70
2019-02-25T17:15:14.690Z,7.60
2019-02-25T17:17:42.221Z,7.50
2019-02-25T17:20:13.014Z,7.40
2019-02-25T17:22:40.909Z,7.20
2019-02-25T17:25:10.347Z,7.20
2019-02-25T17:27:38.013Z,7.10
2019-02-25T17:30:08.260Z,7.00
2019-02-25T17:32:37.835Z,6.90
2019-02-25T17:35:07.411Z,6.80
2019-02-25T17:37:36.113Z,6.70
2019-02-25T17:40:08.549Z,6.60
2019-02-25T17:42:37.630Z,6.40
2019-02-25T17:45:08.422Z,6.60
2019-02-25T17:47:46.445Z,6.30
2019-02-25T17:50:15.842Z,6.30
2019-02-25T17:52:45.158Z,6.20
2019-02-25T17:55:16.708Z,6.20
2019-02-25T17:57:44.848Z,6.10
2019-02-25T18:00:18.188Z,6.10
2019-02-25T18:02:49.402Z,6.00
2019-02-25T18:05:19.124Z,6.00
2019-02-25T18:07:48.663Z,6.10
2019-02-25T18:10:16.535Z,6.00
2019-02-25T18:12:44.076Z,5.90
2019-02-25T18:15:16.101Z,5.80
2019-02-25T18:17:44.862Z,5.70
2019-02-25T18:20:13.713Z,5.60
2019-02-25T18:22:41.511Z,5.40
2019-02-25T18:25:09.310Z,5.40
2019-02-25T18:27:39.200Z,5.40
2019-02-25T18:30:07.708Z,5.40
2019-02-25T18:32:37.084Z,5.80
2019-02-25T18:35:06.117Z,5.20
2019-02-25T18:37:35.289Z,5.00
2019-02-25T18:40:03.816Z,5.00
2019-02-25T18:42:32.029Z,5.00
2019-02-25T18:45:00.420Z,5.00
2019-02-25T18:47:28.065Z,5.00
2019-02-25T18:49:56.566Z,5.00
2019-02-25T18:52:25.925Z,5.10
2019-02-25T18:54:55.008Z,5.00
2019-02-25T18:57:23.594Z,4.90
2019-02-25T18:59:52.276Z,4.80
2019-02-25T19:02:20.150Z,3.20
2019-02-25T19:04:47.983Z,4.80
2019-02-25T19:07:15.887Z,4.50
2019-02-25T19:09:45.227Z,4.40
2019-02-25T19:12:13.622Z,4.40
2019-02-25T19:14:44.253Z,4.40
2019-02-25T19:17:12.001Z,4.90
2019-02-25T19:19:40.559Z,4.30
2019-02-25T19:22:10.655Z,4.50
2019-02-25T19:24:41.627Z,4.40
2019-02-25T19:27:09.147Z,4.50
2019-02-25T19:29:37.588Z,4.60
2019-02-25T19:32:05.227Z,4.30
2019-02-25T19:34:33.194Z,4.40
2019-02-25T19:37:02.859Z,4.20
2019-02-25T19:39:30.423Z,4.20
2019-02-25T19:42:00.062Z,4.40
2019-02-25T19:44:29.458Z,4.10
2019-02-25T19:46:57.446Z,4.00
2019-02-25T19:49:26.771Z,3.90
2019-02-25T19:51:54.391Z,3.90
2019-02-25T19:54:22.156Z,3.70
2019-02-25T19:56:51.449Z,3.70
2019-02-25T19:59:21.655Z,3.80
2019-02-25T20:01:49.131Z,3.90
2019-02-25T20:04:18.738Z,4.10
2019-02-25T20:06:48.676Z,3.90
2019-02-25T20:09:17.551Z,4.00
2019-02-25T20:11:45.823Z,4.00
2019-02-25T20:14:16.563Z,3.80
2019-02-25T20:16:43.130Z,3.60
2019-02-25T20:19:12.685Z,3.60
2019-02-25T20:21:40.278Z,3.50
2019-02-25T20:24:12.413Z,3.70
2019-02-25T20:26:37.307Z,3.60
2019-02-25T20:29:06.357Z,3.40
2019-02-25T20:31:34.441Z,3.30
2019-02-25T20:34:02.084Z,3.30
2019-02-25T20:36:30.629Z,3.30
2019-02-25T20:38:59.030Z,3.20
2019-02-25T20:41:27.232Z,3.80
2019-02-25T20:43:57.910Z,3.10
2019-02-25T20:46:26.330Z,3.10
2019-02-25T20:48:56.063Z,3.10
2019-02-25T20:51:24.973Z,3.70
2019-02-25T20:53:55.041Z,3.60
2019-02-25T20:56:24.446Z,3.40
2019-02-25T20:58:52.594Z,3.80
2019-02-25T21:01:21.253Z,3.90
2019-02-25T21:03:50.457Z,4.00
2019-02-25T21:06:19.534Z,4.00
2019-02-25T21:08:48.005Z,4.10
2019-02-25T21:11:15.744Z,4.00
2019-02-25T21:13:43.569Z,3.90
2019-02-25T21:16:11.194Z,3.60
2019-02-25T21:18:38.953Z,3.50
2019-02-25T21:21:07.744Z,3.30
2019-02-25T21:23:35.884Z,3.20
2019-02-25T21:26:04.889Z,3.20
2019-02-25T21:28:33.752Z,3.10
2019-02-25T21:31:02.493Z,3.00
2019-02-25T21:33:30.444Z,4.10
2019-02-25T21:35:58.149Z,3.10
2019-02-25T21:38:26.715Z,4.00
2019-02-25T21:40:55.184Z,3.50
2019-02-25T21:43:25.718Z,3.50
2019-02-25T21:45:54.237Z,3.40
2019-02-25T21:48:25.085Z,4.10
2019-02-25T21:50:51.047Z,3.50
2019-02-25T21:53:18.729Z,3.50
2019-02-25T21:55:46.276Z,2.90
2019-02-25T21:58:14.515Z,3.70
2019-02-25T22:00:43.454Z,3.70
2019-02-25T22:03:13.175Z,3.80
2019-02-25T22:05:40.536Z,3.60
2019-02-25T22:08:08.116Z,3.80
2019-02-25T22:10:37.561Z,3.70
2019-02-25T22:13:08.785Z,3.70
2019-02-25T22:15:36.236Z,4.40
2019-02-25T22:18:06.092Z,3.70
2019-02-25T22:20:37.646Z,3.80
2019-02-25T22:23:05.668Z,3.90
2019-02-25T22:25:33.215Z,3.90
2019-02-25T22:28:01.631Z,4.10
2019-02-25T22:30:32.309Z,4.20
2019-02-25T22:33:02.014Z,4.30
2019-02-25T22:35:33.136Z,4.40
2019-02-25T22:38:00.402Z,4.40
2019-02-25T22:40:29.952Z,4.40
2019-02-25T22:42:58.910Z,4.40
2019-02-25T22:45:26.571Z,4.40
2019-02-25T22:47:54.217Z,4.30
2019-02-25T22:50:21.887Z,4.30
2019-02-25T22:52:55.623Z,4.30
2019-02-25T22:55:22.128Z,4.40
2019-02-25T22:57:50.879Z,4.40
2019-02-25T23:00:29.573Z,4.30
2019-02-25T23:02:57.261Z,4.30
2019-02-25T23:05:25.574Z,4.20
2019-02-25T23:07:54.732Z,4.20
2019-02-25T23:10:24.176Z,4.20
2019-02-25T23:12:51.925Z,4.10
2019-02-25T23:15:20.536Z,4.10
2019-02-25T23:17:49.140Z,4.40
2019-02-25T23:20:16.731Z,4.10
2019-02-25T23:22:44.396Z,4.20
2019-02-25T23:25:12.290Z,4.30
2019-02-25T23:27:40.287Z,4.40
2019-02-25T23:30:08.603Z,4.40
2019-02-25T23:32:38.835Z,4.50
2019-02-25T23:35:09.385Z,4.50
2019-02-25T23:37:35.436Z,4.60
2019-02-25T23:40:07.233Z,4.70
2019-02-25T23:42:37.374Z,4.70
2019-02-25T23:45:06.418Z,4.70
2019-02-25T23:47:36.039Z,4.80
2019-02-25T23:50:04.927Z,4.80
2019-02-25T23:52:35.358Z,4.90
2019-02-25T23:55:07.336Z,5.00
2019-02-25T23:57:35.368Z,4.90
